Ana Sayfa
METAR-TAF:

METAR-TAF

Havaalanları :

Mid-Way Regional Airport

Midlothian / Waxahachie, Teksas, Amerika Birleşik Devletleri

Enlem: 32-27-21N, Boylam: 096-54-44W, yükseklik: 217 m

Güncel hava durumu gözlemi

Rapor saat 06:35 UTC de 18 dakika önce yapıldı.
Rüzgar güneydan 13 kt ve 21 kt'a kadar ani rüzgarlar
Sıcaklık 15°C
Nem 100%
Basınç 1011 hPa
Görüş mesafesi: 16.1 km
800 ft yükseklikte çok bulutlu

METAR: KJWY 240635Z AUTO 19013G21KT 10SM OVC008 15/15 A2984 RMK AO2 T01520152

Saat: 00:53 (06:53 UTC)


TAF: eksik

4.000'den fazla havaalanı için hava durumu gözlemleri ve tahminleri (METAR ve TAF raporları).

Kullanılabilir istasyonlar harita üzerinde sarı ve kırmızı noktalarla gösterilir.

İstasyonun adını görmek için fareyi noktanın üzerinde gezdirin.

Sonrasında hava gözlem ve tahminlerini görmek için tıklayın.

Haritayı değiştirmek için: yaklaştırmak için siyah artı işaretli yeşil düğmeye ve uzaklaştırmak için de eksi işaretli düğmeye hızla tıklayın; bitişik haritalar için yeşil okları kullanın.


METAR-TAF: